sensor_id;sensor_type;location;lat;lon;timestamp;P1;durP1;ratioP1;P2;durP2;ratioP2
35126;SDS011;21300;52.006;5.798;2023-03-05T00:02:20;9.98;;;2.42;;
35126;SDS011;21300;52.006;5.798;2023-03-05T00:04:46;9.48;;;2.20;;
35126;SDS011;21300;52.006;5.798;2023-03-05T00:07:11;9.20;;;2.20;;
35126;SDS011;21300;52.006;5.798;2023-03-05T00:09:38;9.98;;;2.75;;
35126;SDS011;21300;52.006;5.798;2023-03-05T00:12:04;12.60;;;2.45;;
35126;SDS011;21300;52.006;5.798;2023-03-05T00:14:30;11.43;;;2.80;;
35126;SDS011;21300;52.006;5.798;2023-03-05T00:16:56;10.93;;;2.92;;
35126;SDS011;21300;52.006;5.798;2023-03-05T00:19:21;6.30;;;2.72;;
35126;SDS011;21300;52.006;5.798;2023-03-05T00:21:47;11.15;;;2.47;;
35126;SDS011;21300;52.006;5.798;2023-03-05T00:24:14;16.02;;;3.10;;
35126;SDS011;21300;52.006;5.798;2023-03-05T00:26:42;6.55;;;2.30;;
35126;SDS011;21300;52.006;5.798;2023-03-05T00:29:09;14.80;;;2.63;;
35126;SDS011;21300;52.006;5.798;2023-03-05T00:31:38;13.45;;;2.97;;
35126;SDS011;21300;52.006;5.798;2023-03-05T00:34:05;12.05;;;2.45;;
35126;SDS011;21300;52.006;5.798;2023-03-05T00:36:33;8.35;;;2.22;;
35126;SDS011;21300;52.006;5.798;2023-03-05T00:38:59;8.10;;;2.28;;
35126;SDS011;21300;52.006;5.798;2023-03-05T00:41:25;9.85;;;2.35;;
35126;SDS011;21300;52.006;5.798;2023-03-05T00:43:51;7.85;;;2.58;;
35126;SDS011;21300;52.006;5.798;2023-03-05T00:46:17;13.77;;;2.78;;
35126;SDS011;21300;52.006;5.798;2023-03-05T00:48:42;9.45;;;2.45;;
35126;SDS011;21300;52.006;5.798;2023-03-05T00:51:08;9.65;;;2.40;;
35126;SDS011;21300;52.006;5.798;2023-03-05T00:53:34;11.60;;;3.05;;
35126;SDS011;21300;52.006;5.798;2023-03-05T00:55:59;10.45;;;2.40;;
35126;SDS011;21300;52.006;5.798;2023-03-05T00:58:25;10.52;;;2.60;;
35126;SDS011;21300;52.006;5.798;2023-03-05T01:00:51;11.93;;;2.88;;
35126;SDS011;21300;52.006;5.798;2023-03-05T01:03:17;12.35;;;2.88;;
35126;SDS011;21300;52.006;5.798;2023-03-05T01:05:43;8.30;;;2.33;;
35126;SDS011;21300;52.006;5.798;2023-03-05T01:08:09;11.98;;;2.47;;
35126;SDS011;21300;52.006;5.798;2023-03-05T01:10:35;9.43;;;2.30;;
35126;SDS011;21300;52.006;5.798;2023-03-05T01:13:01;9.50;;;2.40;;
35126;SDS011;21300;52.006;5.798;2023-03-05T01:15:26;9.15;;;2.72;;
35126;SDS011;21300;52.006;5.798;2023-03-05T01:17:52;8.75;;;2.75;;
35126;SDS011;21300;52.006;5.798;2023-03-05T01:20:19;10.73;;;2.70;;
35126;SDS011;21300;52.006;5.798;2023-03-05T01:22:45;14.27;;;3.58;;
35126;SDS011;21300;52.006;5.798;2023-03-05T01:25:11;13.60;;;2.80;;
35126;SDS011;21300;52.006;5.798;2023-03-05T01:27:38;10.90;;;3.00;;
35126;SDS011;21300;52.006;5.798;2023-03-05T01:30:04;16.30;;;5.18;;
35126;SDS011;21300;52.006;5.798;2023-03-05T01:32:31;16.38;;;5.53;;
35126;SDS011;21300;52.006;5.798;2023-03-05T01:34:58;15.57;;;5.55;;
35126;SDS011;21300;52.006;5.798;2023-03-05T01:37:25;13.10;;;3.28;;
35126;SDS011;21300;52.006;5.798;2023-03-05T01:39:50;13.70;;;3.95;;
35126;SDS011;21300;52.006;5.798;2023-03-05T01:42:16;9.48;;;2.95;;
35126;SDS011;21300;52.006;5.798;2023-03-05T01:44:58;10.82;;;2.72;;
35126;SDS011;21300;52.006;5.798;2023-03-05T01:47:35;11.60;;;2.42;;
35126;SDS011;21300;52.006;5.798;2023-03-05T01:50:03;6.22;;;2.28;;
35126;SDS011;21300;52.006;5.798;2023-03-05T01:52:34;9.38;;;2.20;;
35126;SDS011;21300;52.006;5.798;2023-03-05T01:55:07;13.73;;;2.78;;
35126;SDS011;21300;52.006;5.798;2023-03-05T01:57:40;9.63;;;3.05;;
35126;SDS011;21300;52.006;5.798;2023-03-05T02:00:12;11.95;;;3.38;;
35126;SDS011;21300;52.006;5.798;2023-03-05T02:02:44;10.27;;;3.28;;
35126;SDS011;21300;52.006;5.798;2023-03-05T02:05:15;13.05;;;2.67;;
35126;SDS011;21300;52.006;5.798;2023-03-05T02:07:54;10.60;;;2.63;;
35126;SDS011;21300;52.006;5.798;2023-03-05T02:10:25;9.82;;;2.13;;
35126;SDS011;21300;52.006;5.798;2023-03-05T02:12:54;8.40;;;2.63;;
35126;SDS011;21300;52.006;5.798;2023-03-05T02:15:22;10.82;;;3.13;;
35126;SDS011;21300;52.006;5.798;2023-03-05T02:17:47;7.78;;;2.22;;
35126;SDS011;21300;52.006;5.798;2023-03-05T02:20:14;12.85;;;2.30;;
35126;SDS011;21300;52.006;5.798;2023-03-05T02:22:42;6.63;;;2.10;;
35126;SDS011;21300;52.006;5.798;2023-03-05T02:25:12;7.85;;;2.35;;
35126;SDS011;21300;52.006;5.798;2023-03-05T02:27:37;8.35;;;2.33;;
35126;SDS011;21300;52.006;5.798;2023-03-05T02:30:06;8.75;;;2.40;;
35126;SDS011;21300;52.006;5.798;2023-03-05T02:32:33;8.00;;;2.42;;
35126;SDS011;21300;52.006;5.798;2023-03-05T02:34:58;9.55;;;1.80;;
35126;SDS011;21300;52.006;5.798;2023-03-05T02:37:24;6.82;;;1.90;;
35126;SDS011;21300;52.006;5.798;2023-03-05T02:39:49;11.27;;;2.40;;
35126;SDS011;21300;52.006;5.798;2023-03-05T02:42:15;10.40;;;1.98;;
35126;SDS011;21300;52.006;5.798;2023-03-05T02:44:40;6.75;;;1.77;;
35126;SDS011;21300;52.006;5.798;2023-03-05T02:47:06;7.88;;;2.35;;
35126;SDS011;21300;52.006;5.798;2023-03-05T02:49:31;7.82;;;2.78;;
35126;SDS011;21300;52.006;5.798;2023-03-05T02:51:57;7.45;;;1.95;;
35126;SDS011;21300;52.006;5.798;2023-03-05T02:54:23;8.25;;;2.20;;
35126;SDS011;21300;52.006;5.798;2023-03-05T02:56:48;6.40;;;1.90;;
35126;SDS011;21300;52.006;5.798;2023-03-05T02:59:14;9.63;;;2.42;;
35126;SDS011;21300;52.006;5.798;2023-03-05T03:01:40;12.48;;;2.50;;
35126;SDS011;21300;52.006;5.798;2023-03-05T03:04:05;12.40;;;2.53;;
35126;SDS011;21300;52.006;5.798;2023-03-05T03:06:31;10.95;;;2.63;;
35126;SDS011;21300;52.006;5.798;2023-03-05T03:08:57;10.27;;;2.50;;
35126;SDS011;21300;52.006;5.798;2023-03-05T03:11:22;8.77;;;2.30;;
35126;SDS011;21300;52.006;5.798;2023-03-05T03:13:48;7.53;;;2.08;;
35126;SDS011;21300;52.006;5.798;2023-03-05T03:16:14;9.23;;;2.22;;
35126;SDS011;21300;52.006;5.798;2023-03-05T03:18:40;14.40;;;2.70;;
35126;SDS011;21300;52.006;5.798;2023-03-05T03:21:06;11.23;;;2.35;;
35126;SDS011;21300;52.006;5.798;2023-03-05T03:23:32;9.48;;;2.45;;
35126;SDS011;21300;52.006;5.798;2023-03-05T03:25:58;11.90;;;2.85;;
35126;SDS011;21300;52.006;5.798;2023-03-05T03:28:24;14.00;;;2.42;;
35126;SDS011;21300;52.006;5.798;2023-03-05T03:30:50;9.68;;;2.75;;
35126;SDS011;21300;52.006;5.798;2023-03-05T03:33:15;10.90;;;2.83;;
35126;SDS011;21300;52.006;5.798;2023-03-05T03:35:42;9.93;;;2.80;;
35126;SDS011;21300;52.006;5.798;2023-03-05T03:38:09;8.82;;;2.70;;
35126;SDS011;21300;52.006;5.798;2023-03-05T03:40:36;13.10;;;2.88;;
35126;SDS011;21300;52.006;5.798;2023-03-05T03:43:02;14.48;;;2.78;;
35126;SDS011;21300;52.006;5.798;2023-03-05T03:45:28;8.82;;;2.97;;
35126;SDS011;21300;52.006;5.798;2023-03-05T03:47:53;11.20;;;2.78;;
35126;SDS011;21300;52.006;5.798;2023-03-05T03:50:19;11.93;;;3.28;;
35126;SDS011;21300;52.006;5.798;2023-03-05T03:52:45;15.10;;;4.22;;
35126;SDS011;21300;52.006;5.798;2023-03-05T03:55:11;10.32;;;3.20;;
35126;SDS011;21300;52.006;5.798;2023-03-05T03:57:37;11.65;;;3.38;;
35126;SDS011;21300;52.006;5.798;2023-03-05T04:00:03;14.55;;;3.08;;
35126;SDS011;21300;52.006;5.798;2023-03-05T04:02:32;9.10;;;3.17;;
35126;SDS011;21300;52.006;5.798;2023-03-05T04:04:58;10.85;;;2.97;;
35126;SDS011;21300;52.006;5.798;2023-03-05T04:07:23;9.55;;;2.85;;
35126;SDS011;21300;52.006;5.798;2023-03-05T04:09:49;10.88;;;2.80;;
35126;SDS011;21300;52.006;5.798;2023-03-05T04:12:14;11.55;;;3.10;;
35126;SDS011;21300;52.006;5.798;2023-03-05T04:14:43;10.15;;;2.83;;
35126;SDS011;21300;52.006;5.798;2023-03-05T04:17:10;10.27;;;3.28;;
35126;SDS011;21300;52.006;5.798;2023-03-05T04:19:36;9.70;;;3.20;;
35126;SDS011;21300;52.006;5.798;2023-03-05T04:22:01;14.25;;;2.63;;
35126;SDS011;21300;52.006;5.798;2023-03-05T04:24:27;7.75;;;2.65;;
35126;SDS011;21300;52.006;5.798;2023-03-05T04:26:52;13.80;;;2.95;;
35126;SDS011;21300;52.006;5.798;2023-03-05T04:29:18;7.75;;;2.30;;
35126;SDS011;21300;52.006;5.798;2023-03-05T04:31:44;11.80;;;2.53;;
35126;SDS011;21300;52.006;5.798;2023-03-05T04:34:09;10.93;;;2.63;;
35126;SDS011;21300;52.006;5.798;2023-03-05T04:36:35;9.93;;;2.47;;
35126;SDS011;21300;52.006;5.798;2023-03-05T04:39:01;7.28;;;2.60;;
35126;SDS011;21300;52.006;5.798;2023-03-05T04:41:27;10.65;;;2.47;;
35126;SDS011;21300;52.006;5.798;2023-03-05T04:43:53;8.18;;;2.50;;
35126;SDS011;21300;52.006;5.798;2023-03-05T04:46:18;11.23;;;2.50;;
35126;SDS011;21300;52.006;5.798;2023-03-05T04:48:44;7.38;;;2.65;;
35126;SDS011;21300;52.006;5.798;2023-03-05T04:51:09;7.85;;;2.25;;
35126;SDS011;21300;52.006;5.798;2023-03-05T04:53:35;8.40;;;2.47;;
35126;SDS011;21300;52.006;5.798;2023-03-05T04:56:00;9.65;;;2.30;;
35126;SDS011;21300;52.006;5.798;2023-03-05T04:58:26;11.60;;;2.30;;
35126;SDS011;21300;52.006;5.798;2023-03-05T05:00:52;9.02;;;2.33;;
35126;SDS011;21300;52.006;5.798;2023-03-05T05:03:17;7.18;;;2.00;;
35126;SDS011;21300;52.006;5.798;2023-03-05T05:05:43;8.20;;;2.13;;
35126;SDS011;21300;52.006;5.798;2023-03-05T05:08:08;7.50;;;2.13;;
35126;SDS011;21300;52.006;5.798;2023-03-05T05:10:35;6.68;;;2.00;;
35126;SDS011;21300;52.006;5.798;2023-03-05T05:13:03;9.80;;;2.15;;
35126;SDS011;21300;52.006;5.798;2023-03-05T05:15:29;8.40;;;2.08;;
35126;SDS011;21300;52.006;5.798;2023-03-05T05:17:56;7.32;;;2.13;;
35126;SDS011;21300;52.006;5.798;2023-03-05T05:20:22;11.10;;;2.13;;
35126;SDS011;21300;52.006;5.798;2023-03-05T05:22:48;7.50;;;2.05;;
35126;SDS011;21300;52.006;5.798;2023-03-05T05:25:14;6.45;;;1.90;;
35126;SDS011;21300;52.006;5.798;2023-03-05T05:27:39;6.95;;;2.03;;
35126;SDS011;21300;52.006;5.798;2023-03-05T05:30:05;5.38;;;2.00;;
35126;SDS011;21300;52.006;5.798;2023-03-05T05:32:31;9.65;;;2.13;;
35126;SDS011;21300;52.006;5.798;2023-03-05T05:34:57;8.13;;;2.20;;
35126;SDS011;21300;52.006;5.798;2023-03-05T05:37:23;11.93;;;2.30;;
35126;SDS011;21300;52.006;5.798;2023-03-05T05:39:49;11.63;;;2.30;;
35126;SDS011;21300;52.006;5.798;2023-03-05T05:42:16;8.73;;;1.98;;
35126;SDS011;21300;52.006;5.798;2023-03-05T05:44:42;7.30;;;1.70;;
35126;SDS011;21300;52.006;5.798;2023-03-05T05:47:08;7.25;;;2.58;;
35126;SDS011;21300;52.006;5.798;2023-03-05T05:49:34;8.85;;;1.90;;
35126;SDS011;21300;52.006;5.798;2023-03-05T05:52:00;5.65;;;1.80;;
35126;SDS011;21300;52.006;5.798;2023-03-05T05:54:25;8.85;;;2.25;;
35126;SDS011;21300;52.006;5.798;2023-03-05T05:56:51;10.38;;;2.10;;
35126;SDS011;21300;52.006;5.798;2023-03-05T05:59:17;7.45;;;1.92;;
35126;SDS011;21300;52.006;5.798;2023-03-05T06:01:42;7.25;;;1.70;;
35126;SDS011;21300;52.006;5.798;2023-03-05T06:04:08;9.88;;;2.00;;
35126;SDS011;21300;52.006;5.798;2023-03-05T06:06:34;12.27;;;2.03;;
35126;SDS011;21300;52.006;5.798;2023-03-05T06:08:59;7.85;;;2.00;;
35126;SDS011;21300;52.006;5.798;2023-03-05T06:11:25;7.50;;;1.83;;
35126;SDS011;21300;52.006;5.798;2023-03-05T06:13:51;5.10;;;1.77;;
35126;SDS011;21300;52.006;5.798;2023-03-05T06:16:18;5.70;;;1.88;;
35126;SDS011;21300;52.006;5.798;2023-03-05T06:18:46;8.63;;;1.88;;
35126;SDS011;21300;52.006;5.798;2023-03-05T06:21:13;9.07;;;1.80;;
35126;SDS011;21300;52.006;5.798;2023-03-05T06:23:40;5.72;;;1.65;;
35126;SDS011;21300;52.006;5.798;2023-03-05T06:26:09;9.60;;;1.73;;
35126;SDS011;21300;52.006;5.798;2023-03-05T06:28:36;7.05;;;1.80;;
35126;SDS011;21300;52.006;5.798;2023-03-05T06:31:04;7.13;;;1.70;;
35126;SDS011;21300;52.006;5.798;2023-03-05T06:33:33;6.97;;;1.65;;
35126;SDS011;21300;52.006;5.798;2023-03-05T06:36:02;6.90;;;1.90;;
35126;SDS011;21300;52.006;5.798;2023-03-05T06:38:28;6.85;;;1.80;;
35126;SDS011;21300;52.006;5.798;2023-03-05T06:40:54;6.38;;;1.83;;
35126;SDS011;21300;52.006;5.798;2023-03-05T06:43:20;8.38;;;1.55;;
35126;SDS011;21300;52.006;5.798;2023-03-05T06:45:46;4.97;;;1.63;;
35126;SDS011;21300;52.006;5.798;2023-03-05T06:48:11;5.45;;;1.60;;
35126;SDS011;21300;52.006;5.798;2023-03-05T06:50:37;7.85;;;1.50;;
35126;SDS011;21300;52.006;5.798;2023-03-05T06:53:02;7.53;;;1.70;;
35126;SDS011;21300;52.006;5.798;2023-03-05T06:55:28;8.70;;;1.67;;
35126;SDS011;21300;52.006;5.798;2023-03-05T06:57:54;4.28;;;1.52;;
35126;SDS011;21300;52.006;5.798;2023-03-05T07:00:20;7.50;;;1.90;;
35126;SDS011;21300;52.006;5.798;2023-03-05T07:02:46;5.07;;;1.95;;
35126;SDS011;21300;52.006;5.798;2023-03-05T07:05:11;8.15;;;1.65;;
35126;SDS011;21300;52.006;5.798;2023-03-05T07:07:37;6.75;;;1.70;;
35126;SDS011;21300;52.006;5.798;2023-03-05T07:10:03;10.45;;;2.40;;
35126;SDS011;21300;52.006;5.798;2023-03-05T07:12:31;11.45;;;2.10;;
35126;SDS011;21300;52.006;5.798;2023-03-05T07:14:58;8.63;;;2.05;;
35126;SDS011;21300;52.006;5.798;2023-03-05T07:17:23;8.02;;;2.10;;
35126;SDS011;21300;52.006;5.798;2023-03-05T07:19:49;6.63;;;1.75;;
35126;SDS011;21300;52.006;5.798;2023-03-05T07:22:14;4.28;;;1.92;;
35126;SDS011;21300;52.006;5.798;2023-03-05T07:24:40;5.55;;;1.73;;
35126;SDS011;21300;52.006;5.798;2023-03-05T07:27:05;5.18;;;2.10;;
35126;SDS011;21300;52.006;5.798;2023-03-05T07:29:31;6.68;;;2.17;;
35126;SDS011;21300;52.006;5.798;2023-03-05T07:31:57;4.25;;;1.85;;
35126;SDS011;21300;52.006;5.798;2023-03-05T07:34:22;7.40;;;2.08;;
35126;SDS011;21300;52.006;5.798;2023-03-05T07:36:51;7.03;;;1.98;;
35126;SDS011;21300;52.006;5.798;2023-03-05T07:39:17;7.57;;;2.30;;
35126;SDS011;21300;52.006;5.798;2023-03-05T07:41:43;8.70;;;2.20;;
35126;SDS011;21300;52.006;5.798;2023-03-05T07:44:10;5.72;;;2.42;;
35126;SDS011;21300;52.006;5.798;2023-03-05T07:46:36;7.38;;;2.20;;
35126;SDS011;21300;52.006;5.798;2023-03-05T07:49:02;6.68;;;2.10;;
35126;SDS011;21300;52.006;5.798;2023-03-05T07:51:28;4.03;;;2.20;;
35126;SDS011;21300;52.006;5.798;2023-03-05T07:53:55;4.88;;;2.30;;
35126;SDS011;21300;52.006;5.798;2023-03-05T07:58:55;7.05;;;2.35;;
35126;SDS011;21300;52.006;5.798;2023-03-05T08:01:24;7.40;;;2.60;;
35126;SDS011;21300;52.006;5.798;2023-03-05T08:03:50;7.43;;;2.97;;
35126;SDS011;21300;52.006;5.798;2023-03-05T08:06:15;5.80;;;2.75;;
35126;SDS011;21300;52.006;5.798;2023-03-05T08:08:41;9.63;;;3.05;;
35126;SDS011;21300;52.006;5.798;2023-03-05T08:11:08;6.32;;;2.55;;
35126;SDS011;21300;52.006;5.798;2023-03-05T08:13:35;7.28;;;2.97;;
35126;SDS011;21300;52.006;5.798;2023-03-05T08:16:08;6.93;;;2.88;;
35126;SDS011;21300;52.006;5.798;2023-03-05T08:18:37;7.90;;;2.53;;
35126;SDS011;21300;52.006;5.798;2023-03-05T08:21:02;8.65;;;2.80;;
35126;SDS011;21300;52.006;5.798;2023-03-05T08:23:28;6.55;;;2.35;;
35126;SDS011;21300;52.006;5.798;2023-03-05T08:25:54;4.30;;;2.03;;
35126;SDS011;21300;52.006;5.798;2023-03-05T08:28:20;7.78;;;2.58;;
35126;SDS011;21300;52.006;5.798;2023-03-05T08:30:46;5.38;;;2.13;;
35126;SDS011;21300;52.006;5.798;2023-03-05T08:33:13;10.02;;;2.40;;
35126;SDS011;21300;52.006;5.798;2023-03-05T08:35:38;7.35;;;2.20;;
35126;SDS011;21300;52.006;5.798;2023-03-05T08:38:04;5.13;;;1.63;;
35126;SDS011;21300;52.006;5.798;2023-03-05T08:40:30;6.30;;;1.60;;
35126;SDS011;21300;52.006;5.798;2023-03-05T08:42:56;7.13;;;2.03;;
35126;SDS011;21300;52.006;5.798;2023-03-05T08:45:23;6.63;;;1.80;;
35126;SDS011;21300;52.006;5.798;2023-03-05T08:47:49;2.80;;;1.60;;
35126;SDS011;21300;52.006;5.798;2023-03-05T08:50:15;7.45;;;1.77;;
35126;SDS011;21300;52.006;5.798;2023-03-05T08:52:41;5.82;;;1.95;;
35126;SDS011;21300;52.006;5.798;2023-03-05T08:55:07;5.63;;;1.95;;
35126;SDS011;21300;52.006;5.798;2023-03-05T08:57:33;7.85;;;2.25;;
35126;SDS011;21300;52.006;5.798;2023-03-05T08:59:59;7.68;;;2.50;;
35126;SDS011;21300;52.006;5.798;2023-03-05T09:02:24;5.65;;;1.77;;
35126;SDS011;21300;52.006;5.798;2023-03-05T09:04:50;5.68;;;2.03;;
35126;SDS011;21300;52.006;5.798;2023-03-05T09:07:15;8.68;;;2.10;;
35126;SDS011;21300;52.006;5.798;2023-03-05T09:09:41;3.88;;;2.13;;
35126;SDS011;21300;52.006;5.798;2023-03-05T09:12:06;5.82;;;2.10;;
35126;SDS011;21300;52.006;5.798;2023-03-05T09:14:33;4.82;;;2.10;;
35126;SDS011;21300;52.006;5.798;2023-03-05T09:16:58;5.80;;;2.28;;
35126;SDS011;21300;52.006;5.798;2023-03-05T09:19:25;5.05;;;2.58;;
35126;SDS011;21300;52.006;5.798;2023-03-05T09:21:51;7.57;;;2.20;;
35126;SDS011;21300;52.006;5.798;2023-03-05T09:24:17;7.25;;;2.25;;
35126;SDS011;21300;52.006;5.798;2023-03-05T09:26:42;6.72;;;2.95;;
35126;SDS011;21300;52.006;5.798;2023-03-05T09:29:08;4.22;;;2.50;;
35126;SDS011;21300;52.006;5.798;2023-03-05T09:31:34;6.80;;;2.17;;
35126;SDS011;21300;52.006;5.798;2023-03-05T09:34:00;9.70;;;2.25;;
35126;SDS011;21300;52.006;5.798;2023-03-05T09:36:27;4.88;;;2.20;;
35126;SDS011;21300;52.006;5.798;2023-03-05T09:38:54;5.18;;;2.10;;
35126;SDS011;21300;52.006;5.798;2023-03-05T09:50:02;9.07;;;2.33;;
35126;SDS011;21300;52.006;5.798;2023-03-05T09:52:04;4.75;;;2.25;;
35126;SDS011;21300;52.006;5.798;2023-03-05T09:54:38;6.20;;;2.40;;
35126;SDS011;21300;52.006;5.798;2023-03-05T09:57:17;5.68;;;1.83;;
35126;SDS011;21300;52.006;5.798;2023-03-05T09:59:47;4.78;;;1.88;;
35126;SDS011;21300;52.006;5.798;2023-03-05T10:02:18;6.65;;;1.77;;
35126;SDS011;21300;52.006;5.798;2023-03-05T10:04:52;5.78;;;1.75;;
35126;SDS011;21300;52.006;5.798;2023-03-05T10:07:29;5.05;;;1.83;;
35126;SDS011;21300;52.006;5.798;2023-03-05T10:14:56;2.35;;;1.20;;
35126;SDS011;21300;52.006;5.798;2023-03-05T10:25:51;6.28;;;1.48;;
35126;SDS011;21300;52.006;5.798;2023-03-05T10:28:36;5.75;;;1.92;;
35126;SDS011;21300;52.006;5.798;2023-03-05T10:34:34;4.82;;;1.50;;
35126;SDS011;21300;52.006;5.798;2023-03-05T10:37:37;6.13;;;1.42;;
35126;SDS011;21300;52.006;5.798;2023-03-05T10:40:09;4.75;;;1.00;;
35126;SDS011;21300;52.006;5.798;2023-03-05T10:45:33;5.25;;;1.00;;
35126;SDS011;21300;52.006;5.798;2023-03-05T10:50:59;6.15;;;1.73;;
35126;SDS011;21300;52.006;5.798;2023-03-05T10:56:28;1.77;;;1.10;;
35126;SDS011;21300;52.006;5.798;2023-03-05T10:58:55;4.07;;;1.15;;
35126;SDS011;21300;52.006;5.798;2023-03-05T11:01:22;3.75;;;1.60;;
35126;SDS011;21300;52.006;5.798;2023-03-05T11:06:32;4.82;;;1.52;;
35126;SDS011;21300;52.006;5.798;2023-03-05T11:11:42;6.22;;;1.80;;
35126;SDS011;21300;52.006;5.798;2023-03-05T11:14:22;6.80;;;1.60;;
35126;SDS011;21300;52.006;5.798;2023-03-05T11:16:55;4.75;;;1.55;;
35126;SDS011;21300;52.006;5.798;2023-03-05T11:19:26;3.08;;;1.38;;
35126;SDS011;21300;52.006;5.798;2023-03-05T11:25:02;2.33;;;1.27;;
35126;SDS011;21300;52.006;5.798;2023-03-05T11:27:35;5.18;;;1.20;;
35126;SDS011;21300;52.006;5.798;2023-03-05T11:30:24;3.80;;;1.60;;
35126;SDS011;21300;52.006;5.798;2023-03-05T11:33:14;4.05;;;1.10;;
35126;SDS011;21300;52.006;5.798;2023-03-05T11:35:44;5.10;;;1.30;;
35126;SDS011;21300;52.006;5.798;2023-03-05T11:38:28;3.47;;;1.45;;
35126;SDS011;21300;52.006;5.798;2023-03-05T11:40:55;3.65;;;1.50;;
35126;SDS011;21300;52.006;5.798;2023-03-05T11:43:22;2.25;;;1.30;;
35126;SDS011;21300;52.006;5.798;2023-03-05T11:45:50;5.53;;;1.60;;
35126;SDS011;21300;52.006;5.798;2023-03-05T11:48:24;5.38;;;1.50;;
35126;SDS011;21300;52.006;5.798;2023-03-05T11:50:55;4.82;;;1.35;;
35126;SDS011;21300;52.006;5.798;2023-03-05T11:53:29;6.20;;;1.60;;
35126;SDS011;21300;52.006;5.798;2023-03-05T11:56:03;5.03;;;1.90;;
35126;SDS011;21300;52.006;5.798;2023-03-05T11:58:49;3.88;;;2.28;;
35126;SDS011;21300;52.006;5.798;2023-03-05T12:01:25;3.05;;;1.20;;
35126;SDS011;21300;52.006;5.798;2023-03-05T12:03:53;3.15;;;1.20;;
35126;SDS011;21300;52.006;5.798;2023-03-05T12:08:53;4.68;;;1.25;;
35126;SDS011;21300;52.006;5.798;2023-03-05T12:11:30;3.13;;;1.50;;
35126;SDS011;21300;52.006;5.798;2023-03-05T12:16:42;6.85;;;2.17;;
35126;SDS011;21300;52.006;5.798;2023-03-05T12:19:17;5.70;;;2.03;;
35126;SDS011;21300;52.006;5.798;2023-03-05T12:22:03;4.57;;;1.70;;
35126;SDS011;21300;52.006;5.798;2023-03-05T12:24:39;6.38;;;1.45;;
35126;SDS011;21300;52.006;5.798;2023-03-05T12:27:06;2.25;;;1.35;;
35126;SDS011;21300;52.006;5.798;2023-03-05T12:29:47;6.68;;;1.25;;
35126;SDS011;21300;52.006;5.798;2023-03-05T12:35:15;5.55;;;1.70;;
35126;SDS011;21300;52.006;5.798;2023-03-05T12:40:23;3.97;;;1.00;;
35126;SDS011;21300;52.006;5.798;2023-03-05T12:42:57;2.95;;;1.10;;
35126;SDS011;21300;52.006;5.798;2023-03-05T12:45:24;7.03;;;1.20;;
35126;SDS011;21300;52.006;5.798;2023-03-05T12:52:52;1.73;;;0.65;;
35126;SDS011;21300;52.006;5.798;2023-03-05T12:55:34;1.50;;;0.80;;
35126;SDS011;21300;52.006;5.798;2023-03-05T12:58:07;2.40;;;0.70;;
35126;SDS011;21300;52.006;5.798;2023-03-05T13:00:37;4.03;;;0.77;;
35126;SDS011;21300;52.006;5.798;2023-03-05T13:03:10;2.83;;;0.65;;
35126;SDS011;21300;52.006;5.798;2023-03-05T13:05:49;2.90;;;0.82;;
35126;SDS011;21300;52.006;5.798;2023-03-05T13:08:20;3.78;;;1.00;;
35126;SDS011;21300;52.006;5.798;2023-03-05T13:11:35;1.63;;;0.80;;
35126;SDS011;21300;52.006;5.798;2023-03-05T13:13:45;3.30;;;0.70;;
35126;SDS011;21300;52.006;5.798;2023-03-05T13:16:22;1.98;;;0.82;;
35126;SDS011;21300;52.006;5.798;2023-03-05T13:18:53;3.97;;;0.93;;
35126;SDS011;21300;52.006;5.798;2023-03-05T13:21:26;4.72;;;0.80;;
35126;SDS011;21300;52.006;5.798;2023-03-05T13:23:54;3.13;;;0.80;;
35126;SDS011;21300;52.006;5.798;2023-03-05T13:26:25;2.45;;;0.90;;
35126;SDS011;21300;52.006;5.798;2023-03-05T13:29:11;4.80;;;1.13;;
35126;SDS011;21300;52.006;5.798;2023-03-05T13:31:45;3.00;;;0.90;;
35126;SDS011;21300;52.006;5.798;2023-03-05T13:37:06;2.13;;;0.60;;
35126;SDS011;21300;52.006;5.798;2023-03-05T13:39:40;3.65;;;0.90;;
35126;SDS011;21300;52.006;5.798;2023-03-05T13:42:17;2.30;;;0.70;;
35126;SDS011;21300;52.006;5.798;2023-03-05T13:44:56;3.17;;;0.68;;
35126;SDS011;21300;52.006;5.798;2023-03-05T13:47:24;4.25;;;0.80;;
35126;SDS011;21300;52.006;5.798;2023-03-05T13:49:56;2.35;;;0.80;;
35126;SDS011;21300;52.006;5.798;2023-03-05T13:52:28;2.65;;;0.70;;
35126;SDS011;21300;52.006;5.798;2023-03-05T13:54:56;1.50;;;0.52;;
35126;SDS011;21300;52.006;5.798;2023-03-05T13:57:36;2.75;;;0.82;;
35126;SDS011;21300;52.006;5.798;2023-03-05T14:00:23;4.03;;;0.80;;
35126;SDS011;21300;52.006;5.798;2023-03-05T14:02:50;2.47;;;0.90;;
35126;SDS011;21300;52.006;5.798;2023-03-05T14:05:16;2.63;;;0.70;;
35126;SDS011;21300;52.006;5.798;2023-03-05T14:07:42;3.33;;;0.73;;
35126;SDS011;21300;52.006;5.798;2023-03-05T14:10:29;3.13;;;0.80;;
35126;SDS011;21300;52.006;5.798;2023-03-05T14:12:58;0.98;;;0.40;;
35126;SDS011;21300;52.006;5.798;2023-03-05T14:15:26;4.40;;;1.00;;
35126;SDS011;21300;52.006;5.798;2023-03-05T14:20:37;5.93;;;0.70;;
35126;SDS011;21300;52.006;5.798;2023-03-05T14:25:51;2.72;;;0.70;;
35126;SDS011;21300;52.006;5.798;2023-03-05T14:30:46;2.35;;;0.90;;
35126;SDS011;21300;52.006;5.798;2023-03-05T14:33:20;3.42;;;1.05;;
35126;SDS011;21300;52.006;5.798;2023-03-05T14:38:19;1.92;;;0.70;;
35126;SDS011;21300;52.006;5.798;2023-03-05T14:40:48;5.88;;;0.80;;
35126;SDS011;21300;52.006;5.798;2023-03-05T14:43:13;2.92;;;1.17;;
35126;SDS011;21300;52.006;5.798;2023-03-05T14:45:40;3.97;;;1.13;;
35126;SDS011;21300;52.006;5.798;2023-03-05T14:48:12;2.53;;;0.90;;
35126;SDS011;21300;52.006;5.798;2023-03-05T14:50:43;2.53;;;0.70;;
35126;SDS011;21300;52.006;5.798;2023-03-05T14:53:19;1.63;;;0.80;;
35126;SDS011;21300;52.006;5.798;2023-03-05T14:55:51;2.17;;;0.88;;
35126;SDS011;21300;52.006;5.798;2023-03-05T14:58:21;1.55;;;0.90;;
35126;SDS011;21300;52.006;5.798;2023-03-05T15:00:50;1.45;;;0.70;;
35126;SDS011;21300;52.006;5.798;2023-03-05T15:03:17;2.08;;;0.70;;
35126;SDS011;21300;52.006;5.798;2023-03-05T15:05:45;2.33;;;0.80;;
35126;SDS011;21300;52.006;5.798;2023-03-05T15:08:21;2.60;;;0.70;;
35126;SDS011;21300;52.006;5.798;2023-03-05T15:10:50;1.48;;;0.70;;
35126;SDS011;21300;52.006;5.798;2023-03-05T15:13:16;3.13;;;1.30;;
35126;SDS011;21300;52.006;5.798;2023-03-05T15:15:42;2.33;;;1.20;;
35126;SDS011;21300;52.006;5.798;2023-03-05T15:18:09;4.80;;;1.10;;
35126;SDS011;21300;52.006;5.798;2023-03-05T15:20:37;4.97;;;1.13;;
35126;SDS011;21300;52.006;5.798;2023-03-05T15:23:04;4.45;;;1.20;;
35126;SDS011;21300;52.006;5.798;2023-03-05T15:25:29;3.13;;;1.20;;
35126;SDS011;21300;52.006;5.798;2023-03-05T15:27:55;3.60;;;1.13;;
35126;SDS011;21300;52.006;5.798;2023-03-05T15:32:55;4.07;;;1.10;;
35126;SDS011;21300;52.006;5.798;2023-03-05T15:35:22;4.40;;;0.90;;
35126;SDS011;21300;52.006;5.798;2023-03-05T15:37:49;4.00;;;1.38;;
35126;SDS011;21300;52.006;5.798;2023-03-05T15:40:15;4.47;;;2.40;;
35126;SDS011;21300;52.006;5.798;2023-03-05T15:42:41;7.30;;;1.63;;
35126;SDS011;21300;52.006;5.798;2023-03-05T15:45:06;5.10;;;1.80;;
35126;SDS011;21300;52.006;5.798;2023-03-05T15:47:32;3.95;;;1.52;;
35126;SDS011;21300;52.006;5.798;2023-03-05T15:49:58;7.35;;;2.10;;
35126;SDS011;21300;52.006;5.798;2023-03-05T15:52:24;2.30;;;1.80;;
35126;SDS011;21300;52.006;5.798;2023-03-05T15:54:49;2.67;;;1.90;;
35126;SDS011;21300;52.006;5.798;2023-03-05T15:57:15;3.58;;;2.33;;
35126;SDS011;21300;52.006;5.798;2023-03-05T15:59:41;7.65;;;3.65;;
35126;SDS011;21300;52.006;5.798;2023-03-05T16:02:06;5.25;;;3.20;;
35126;SDS011;21300;52.006;5.798;2023-03-05T16:04:32;5.55;;;3.05;;
35126;SDS011;21300;52.006;5.798;2023-03-05T16:06:58;4.30;;;2.50;;
35126;SDS011;21300;52.006;5.798;2023-03-05T16:09:28;5.68;;;2.25;;